12分钟前
罗盘
风向 的 风向 280° Borghorst Airfield 09/27
风: 8 千吨, 3 beaufort
0 500 1.500 3.000 5.000 8.000 10.000
BKN 700 ft
METAR EDDG 220620Z 28008KT 7000 -RADZ BKN007 06/06 Q1031 TEMPO 4500

METAR定义 | 嵌入

24小时趋势

航班类别VFRLIFR
温度1 °C0 °C
风速1 千吨0 千吨
能见度1 公里0 米

更多历史数据

下载我们的安卓应用程序

从你的主屏幕上轻松地访问你的航空天气。
只需一次付费,您就可以获得无广告的体验。

您会帮助我们保持Metar-Taf.com正常运行吗?
您的贡献有助于网站的进一步开发并支付费用。

没有更多广告

您是捐款5美元还是更多?然后,我们将永远不会再向您展示广告,这是我们永恒的感谢!
捐赠前先登录

METAR Borghorst Airfield

Borghorst Airfield是Steinfurt,德国中的小机场。 机场有{a,plural,=1{一条跑道} other{#跑道}}: 09/27

Borghorst Airfield最近未发布观察结果。相反,我们向您显示16 km的报告Münster Osnabrück Airport。 该报告是针对2022年1月22日 07:20, 当地时间进行的。

机场观察

风来自西 (280°)方向,速度为8 千吨。

可见度为7 公里。

有碎云在700 ft的高度。 破损或更高的上限为700 ft。

当前天气为光 雨 细雨。 温度为6 °C,阵风为2 °C。 露点为6 °C,相对湿度为100%。 海平面上的气压为1031 压力 (QNH)。

发展趋势

  • 暂时的

    可变方向的风很小或没有。 可见性变为4,5 公里。

白天

今天,太阳从08:24升起,在16:59降落。 这适用于Borghorst Airfield,世界夏令时可能有所不同。 当地时间与世界标准时间之间的时差为+1 小时。 当前,没有夏令时有效。

公司介绍

我们没有关于这个机场的公司信息。

体会

到Vliegles.nl去找飞行课程,跳伞和其他飞行体验。 浏览页面,了解Borghorst Airfield附近所有可用的活动。 你也可以使用搜索功能来寻找你所在地附近的特定飞行课程、跳伞或其他飞行体验。

您是否要在网站上Borghorst Airfield飞行的天气? 阅读更多   自由!